sensor_id;sensor_type;location;lat;lon;timestamp;pressure;altitude;pressure_sealevel;temperature;humidity
57250;BME280;43102;52.014;-0.680;2024-02-23T00:00:00;97573;;;3.79;83.64
57250;BME280;43102;52.014;-0.680;2024-02-23T00:01:00;97582;;;3.79;83.87
57250;BME280;43102;52.014;-0.680;2024-02-23T00:02:00;97582;;;3.79;83.87
57250;BME280;43102;52.014;-0.680;2024-02-23T00:03:00;97582;;;3.79;83.87
57250;BME280;43102;52.014;-0.680;2024-02-23T00:04:00;97582;;;3.79;83.87
57250;BME280;43102;52.014;-0.680;2024-02-23T00:05:00;97582;;;3.79;83.87
57250;BME280;43102;52.014;-0.680;2024-02-23T00:06:00;97565;;;3.78;83.91
57250;BME280;43102;52.014;-0.680;2024-02-23T00:07:00;97565;;;3.78;83.91
57250;BME280;43102;52.014;-0.680;2024-02-23T00:08:00;97565;;;3.78;83.91
57250;BME280;43102;52.014;-0.680;2024-02-23T00:09:00;97565;;;3.78;83.91
57250;BME280;43102;52.014;-0.680;2024-02-23T00:10:00;97565;;;3.78;83.91
57250;BME280;43102;52.014;-0.680;2024-02-23T00:11:00;97563;;;3.79;83.82
57250;BME280;43102;52.014;-0.680;2024-02-23T00:12:00;97563;;;3.79;83.82
57250;BME280;43102;52.014;-0.680;2024-02-23T00:13:00;97563;;;3.79;83.82
57250;BME280;43102;52.014;-0.680;2024-02-23T00:14:00;97563;;;3.79;83.82
57250;BME280;43102;52.014;-0.680;2024-02-23T00:15:00;97563;;;3.79;83.82
57250;BME280;43102;52.014;-0.680;2024-02-23T00:16:00;97558;;;3.76;83.78
57250;BME280;43102;52.014;-0.680;2024-02-23T00:17:00;97558;;;3.76;83.78
57250;BME280;43102;52.014;-0.680;2024-02-23T00:18:00;97558;;;3.76;83.78
57250;BME280;43102;52.014;-0.680;2024-02-23T00:19:00;97558;;;3.76;83.78
57250;BME280;43102;52.014;-0.680;2024-02-23T00:20:00;97558;;;3.76;83.78
57250;BME280;43102;52.014;-0.680;2024-02-23T00:21:00;97550;;;3.74;83.81
57250;BME280;43102;52.014;-0.680;2024-02-23T00:22:00;97550;;;3.74;83.81
57250;BME280;43102;52.014;-0.680;2024-02-23T00:23:01;97550;;;3.74;83.81
57250;BME280;43102;52.014;-0.680;2024-02-23T00:24:00;97550;;;3.74;83.81
57250;BME280;43102;52.014;-0.680;2024-02-23T00:25:00;97550;;;3.74;83.81
57250;BME280;43102;52.014;-0.680;2024-02-23T00:26:00;97549;;;3.74;83.50
57250;BME280;43102;52.014;-0.680;2024-02-23T00:27:00;97549;;;3.74;83.50
57250;BME280;43102;52.014;-0.680;2024-02-23T00:28:00;97549;;;3.74;83.50
57250;BME280;43102;52.014;-0.680;2024-02-23T00:29:00;97549;;;3.74;83.50
57250;BME280;43102;52.014;-0.680;2024-02-23T00:30:00;97549;;;3.74;83.50
57250;BME280;43102;52.014;-0.680;2024-02-23T00:31:00;97545;;;3.72;83.55
57250;BME280;43102;52.014;-0.680;2024-02-23T00:32:00;97545;;;3.72;83.55
57250;BME280;43102;52.014;-0.680;2024-02-23T00:33:00;97545;;;3.72;83.55
57250;BME280;43102;52.014;-0.680;2024-02-23T00:34:00;97545;;;3.72;83.55
57250;BME280;43102;52.014;-0.680;2024-02-23T00:35:00;97545;;;3.72;83.55
57250;BME280;43102;52.014;-0.680;2024-02-23T00:36:00;97543;;;3.73;83.62
57250;BME280;43102;52.014;-0.680;2024-02-23T00:37:00;97543;;;3.73;83.62
57250;BME280;43102;52.014;-0.680;2024-02-23T00:38:00;97543;;;3.73;83.62
57250;BME280;43102;52.014;-0.680;2024-02-23T00:39:00;97543;;;3.73;83.62
57250;BME280;43102;52.014;-0.680;2024-02-23T00:40:01;97543;;;3.73;83.62
57250;BME280;43102;52.014;-0.680;2024-02-23T00:41:00;97541;;;3.67;83.82
57250;BME280;43102;52.014;-0.680;2024-02-23T00:42:00;97541;;;3.67;83.82
57250;BME280;43102;52.014;-0.680;2024-02-23T00:43:00;97541;;;3.67;83.82
57250;BME280;43102;52.014;-0.680;2024-02-23T00:44:00;97541;;;3.67;83.82
57250;BME280;43102;52.014;-0.680;2024-02-23T00:45:00;97541;;;3.67;83.82
57250;BME280;43102;52.014;-0.680;2024-02-23T00:46:00;97531;;;3.70;83.66
57250;BME280;43102;52.014;-0.680;2024-02-23T00:47:00;97531;;;3.70;83.66
57250;BME280;43102;52.014;-0.680;2024-02-23T00:48:00;97531;;;3.70;83.66
57250;BME280;43102;52.014;-0.680;2024-02-23T00:49:00;97531;;;3.70;83.66
57250;BME280;43102;52.014;-0.680;2024-02-23T00:50:00;97531;;;3.70;83.66
57250;BME280;43102;52.014;-0.680;2024-02-23T00:51:01;97525;;;3.71;83.58
57250;BME280;43102;52.014;-0.680;2024-02-23T00:52:00;97525;;;3.71;83.58
57250;BME280;43102;52.014;-0.680;2024-02-23T00:53:00;97525;;;3.71;83.58
57250;BME280;43102;52.014;-0.680;2024-02-23T00:54:00;97525;;;3.71;83.58
57250;BME280;43102;52.014;-0.680;2024-02-23T00:55:00;97525;;;3.71;83.58
57250;BME280;43102;52.014;-0.680;2024-02-23T00:56:00;97520;;;3.73;83.64
57250;BME280;43102;52.014;-0.680;2024-02-23T00:57:00;97520;;;3.73;83.64
57250;BME280;43102;52.014;-0.680;2024-02-23T00:58:00;97520;;;3.73;83.64
57250;BME280;43102;52.014;-0.680;2024-02-23T00:59:00;97520;;;3.73;83.64
57250;BME280;43102;52.014;-0.680;2024-02-23T01:00:00;97520;;;3.73;83.64
57250;BME280;43102;52.014;-0.680;2024-02-23T01:01:00;97524;;;3.78;83.54
57250;BME280;43102;52.014;-0.680;2024-02-23T01:02:00;97524;;;3.78;83.54
57250;BME280;43102;52.014;-0.680;2024-02-23T01:03:00;97524;;;3.78;83.54
57250;BME280;43102;52.014;-0.680;2024-02-23T01:04:00;97524;;;3.78;83.54
57250;BME280;43102;52.014;-0.680;2024-02-23T01:05:00;97524;;;3.78;83.54
57250;BME280;43102;52.014;-0.680;2024-02-23T01:06:00;97515;;;3.76;83.48
57250;BME280;43102;52.014;-0.680;2024-02-23T01:07:00;97515;;;3.76;83.48
57250;BME280;43102;52.014;-0.680;2024-02-23T01:08:00;97515;;;3.76;83.48
57250;BME280;43102;52.014;-0.680;2024-02-23T01:09:00;97515;;;3.76;83.48
57250;BME280;43102;52.014;-0.680;2024-02-23T01:10:00;97515;;;3.76;83.48
57250;BME280;43102;52.014;-0.680;2024-02-23T01:11:00;97512;;;3.85;83.46
57250;BME280;43102;52.014;-0.680;2024-02-23T01:12:00;97512;;;3.85;83.46
57250;BME280;43102;52.014;-0.680;2024-02-23T01:13:00;97512;;;3.85;83.46
57250;BME280;43102;52.014;-0.680;2024-02-23T01:14:00;97512;;;3.85;83.46
57250;BME280;43102;52.014;-0.680;2024-02-23T01:15:00;97512;;;3.85;83.46
57250;BME280;43102;52.014;-0.680;2024-02-23T01:16:00;97500;;;3.89;83.29
57250;BME280;43102;52.014;-0.680;2024-02-23T01:17:00;97500;;;3.89;83.29
57250;BME280;43102;52.014;-0.680;2024-02-23T01:18:00;97500;;;3.89;83.29
57250;BME280;43102;52.014;-0.680;2024-02-23T01:19:00;97500;;;3.89;83.29
57250;BME280;43102;52.014;-0.680;2024-02-23T01:20:00;97500;;;3.89;83.29
57250;BME280;43102;52.014;-0.680;2024-02-23T01:21:00;97505;;;3.88;83.45
57250;BME280;43102;52.014;-0.680;2024-02-23T01:22:00;97505;;;3.88;83.45
57250;BME280;43102;52.014;-0.680;2024-02-23T01:23:00;97505;;;3.88;83.45
57250;BME280;43102;52.014;-0.680;2024-02-23T01:24:00;97505;;;3.88;83.45
57250;BME280;43102;52.014;-0.680;2024-02-23T01:25:00;97505;;;3.88;83.45
57250;BME280;43102;52.014;-0.680;2024-02-23T01:26:00;97501;;;3.94;83.38
57250;BME280;43102;52.014;-0.680;2024-02-23T01:27:00;97501;;;3.94;83.38
57250;BME280;43102;52.014;-0.680;2024-02-23T01:28:00;97501;;;3.94;83.38
57250;BME280;43102;52.014;-0.680;2024-02-23T01:29:00;97501;;;3.94;83.38
57250;BME280;43102;52.014;-0.680;2024-02-23T01:30:00;97501;;;3.94;83.38
57250;BME280;43102;52.014;-0.680;2024-02-23T01:31:00;97497;;;3.95;83.53
57250;BME280;43102;52.014;-0.680;2024-02-23T01:32:00;97497;;;3.95;83.53
57250;BME280;43102;52.014;-0.680;2024-02-23T01:33:00;97497;;;3.95;83.53
57250;BME280;43102;52.014;-0.680;2024-02-23T01:34:00;97497;;;3.95;83.53
57250;BME280;43102;52.014;-0.680;2024-02-23T01:35:00;97497;;;3.95;83.53
57250;BME280;43102;52.014;-0.680;2024-02-23T01:36:00;97487;;;4.02;83.37
57250;BME280;43102;52.014;-0.680;2024-02-23T01:37:00;97487;;;4.02;83.37
57250;BME280;43102;52.014;-0.680;2024-02-23T01:38:00;97487;;;4.02;83.37
57250;BME280;43102;52.014;-0.680;2024-02-23T01:39:00;97487;;;4.02;83.37
57250;BME280;43102;52.014;-0.680;2024-02-23T01:40:00;97487;;;4.02;83.37
57250;BME280;43102;52.014;-0.680;2024-02-23T01:41:00;97481;;;4.03;83.37
57250;BME280;43102;52.014;-0.680;2024-02-23T01:42:00;97481;;;4.03;83.37
57250;BME280;43102;52.014;-0.680;2024-02-23T01:43:03;97481;;;4.03;83.37
57250;BME280;43102;52.014;-0.680;2024-02-23T01:44:00;97481;;;4.03;83.37
57250;BME280;43102;52.014;-0.680;2024-02-23T01:45:00;97481;;;4.03;83.37
57250;BME280;43102;52.014;-0.680;2024-02-23T01:46:00;97474;;;4.03;83.44
57250;BME280;43102;52.014;-0.680;2024-02-23T01:47:00;97474;;;4.03;83.44
57250;BME280;43102;52.014;-0.680;2024-02-23T01:48:00;97474;;;4.03;83.44
57250;BME280;43102;52.014;-0.680;2024-02-23T01:49:00;97474;;;4.03;83.44
57250;BME280;43102;52.014;-0.680;2024-02-23T01:50:00;97474;;;4.03;83.44
57250;BME280;43102;52.014;-0.680;2024-02-23T01:51:00;97476;;;4.11;83.19
57250;BME280;43102;52.014;-0.680;2024-02-23T01:52:00;97476;;;4.11;83.19
57250;BME280;43102;52.014;-0.680;2024-02-23T01:53:00;97476;;;4.11;83.19
57250;BME280;43102;52.014;-0.680;2024-02-23T01:54:00;97476;;;4.11;83.19
57250;BME280;43102;52.014;-0.680;2024-02-23T01:55:00;97476;;;4.11;83.19
57250;BME280;43102;52.014;-0.680;2024-02-23T01:56:00;97468;;;4.12;83.17
57250;BME280;43102;52.014;-0.680;2024-02-23T01:57:00;97468;;;4.12;83.17
57250;BME280;43102;52.014;-0.680;2024-02-23T01:58:00;97468;;;4.12;83.17
57250;BME280;43102;52.014;-0.680;2024-02-23T01:59:00;97468;;;4.12;83.17
57250;BME280;43102;52.014;-0.680;2024-02-23T02:00:00;97468;;;4.12;83.17
57250;BME280;43102;52.014;-0.680;2024-02-23T02:01:00;97468;;;4.11;83.32
57250;BME280;43102;52.014;-0.680;2024-02-23T02:02:00;97468;;;4.11;83.32
57250;BME280;43102;52.014;-0.680;2024-02-23T02:03:00;97468;;;4.11;83.32
57250;BME280;43102;52.014;-0.680;2024-02-23T02:04:00;97468;;;4.11;83.32
57250;BME280;43102;52.014;-0.680;2024-02-23T02:05:00;97468;;;4.11;83.32
57250;BME280;43102;52.014;-0.680;2024-02-23T02:06:00;97456;;;4.15;83.20
57250;BME280;43102;52.014;-0.680;2024-02-23T02:07:00;97456;;;4.15;83.20
57250;BME280;43102;52.014;-0.680;2024-02-23T02:08:00;97456;;;4.15;83.20
57250;BME280;43102;52.014;-0.680;2024-02-23T02:09:00;97456;;;4.15;83.20
57250;BME280;43102;52.014;-0.680;2024-02-23T02:10:00;97456;;;4.15;83.20
57250;BME280;43102;52.014;-0.680;2024-02-23T02:11:00;97456;;;4.17;83.32
57250;BME280;43102;52.014;-0.680;2024-02-23T02:12:00;97456;;;4.17;83.32
57250;BME280;43102;52.014;-0.680;2024-02-23T02:13:01;97456;;;4.17;83.32
57250;BME280;43102;52.014;-0.680;2024-02-23T02:14:00;97456;;;4.17;83.32
57250;BME280;43102;52.014;-0.680;2024-02-23T02:15:00;97456;;;4.17;83.32
57250;BME280;43102;52.014;-0.680;2024-02-23T02:16:00;97459;;;4.15;83.58
57250;BME280;43102;52.014;-0.680;2024-02-23T02:17:00;97459;;;4.15;83.58
57250;BME280;43102;52.014;-0.680;2024-02-23T02:18:00;97459;;;4.15;83.58
57250;BME280;43102;52.014;-0.680;2024-02-23T02:19:00;97459;;;4.15;83.58
57250;BME280;43102;52.014;-0.680;2024-02-23T02:20:00;97459;;;4.15;83.58
57250;BME280;43102;52.014;-0.680;2024-02-23T02:21:00;97445;;;4.23;83.46
57250;BME280;43102;52.014;-0.680;2024-02-23T02:22:00;97445;;;4.23;83.46
57250;BME280;43102;52.014;-0.680;2024-02-23T02:23:00;97445;;;4.23;83.46
57250;BME280;43102;52.014;-0.680;2024-02-23T02:24:00;97445;;;4.23;83.46
57250;BME280;43102;52.014;-0.680;2024-02-23T02:25:00;97445;;;4.23;83.46
57250;BME280;43102;52.014;-0.680;2024-02-23T02:26:00;97444;;;4.28;83.39
57250;BME280;43102;52.014;-0.680;2024-02-23T02:27:00;97444;;;4.28;83.39
57250;BME280;43102;52.014;-0.680;2024-02-23T02:28:00;97444;;;4.28;83.39
57250;BME280;43102;52.014;-0.680;2024-02-23T02:29:00;97444;;;4.28;83.39
57250;BME280;43102;52.014;-0.680;2024-02-23T02:30:00;97444;;;4.28;83.39
57250;BME280;43102;52.014;-0.680;2024-02-23T02:31:00;97428;;;4.33;83.45
57250;BME280;43102;52.014;-0.680;2024-02-23T02:32:00;97428;;;4.33;83.45
57250;BME280;43102;52.014;-0.680;2024-02-23T02:33:00;97428;;;4.33;83.45
57250;BME280;43102;52.014;-0.680;2024-02-23T02:34:00;97428;;;4.33;83.45
57250;BME280;43102;52.014;-0.680;2024-02-23T02:35:00;97428;;;4.33;83.45
57250;BME280;43102;52.014;-0.680;2024-02-23T02:36:00;97419;;;4.40;83.28
57250;BME280;43102;52.014;-0.680;2024-02-23T02:37:00;97419;;;4.40;83.28
57250;BME280;43102;52.014;-0.680;2024-02-23T02:38:00;97419;;;4.40;83.28
57250;BME280;43102;52.014;-0.680;2024-02-23T02:39:00;97419;;;4.40;83.28
57250;BME280;43102;52.014;-0.680;2024-02-23T02:40:00;97419;;;4.40;83.28
57250;BME280;43102;52.014;-0.680;2024-02-23T02:41:00;97414;;;4.41;83.33
57250;BME280;43102;52.014;-0.680;2024-02-23T02:42:00;97414;;;4.41;83.33
57250;BME280;43102;52.014;-0.680;2024-02-23T02:43:00;97414;;;4.41;83.33
57250;BME280;43102;52.014;-0.680;2024-02-23T02:44:00;97414;;;4.41;83.33
57250;BME280;43102;52.014;-0.680;2024-02-23T02:45:00;97414;;;4.41;83.33
57250;BME280;43102;52.014;-0.680;2024-02-23T02:46:00;97410;;;4.44;83.36
57250;BME280;43102;52.014;-0.680;2024-02-23T02:47:00;97410;;;4.44;83.36
57250;BME280;43102;52.014;-0.680;2024-02-23T02:48:00;97410;;;4.44;83.36
57250;BME280;43102;52.014;-0.680;2024-02-23T02:49:00;97410;;;4.44;83.36
57250;BME280;43102;52.014;-0.680;2024-02-23T02:50:00;97410;;;4.44;83.36
57250;BME280;43102;52.014;-0.680;2024-02-23T02:51:00;97399;;;4.47;83.39
57250;BME280;43102;52.014;-0.680;2024-02-23T02:52:00;97399;;;4.47;83.39
57250;BME280;43102;52.014;-0.680;2024-02-23T02:53:00;97399;;;4.47;83.39
57250;BME280;43102;52.014;-0.680;2024-02-23T02:54:00;97399;;;4.47;83.39
57250;BME280;43102;52.014;-0.680;2024-02-23T02:55:00;97399;;;4.47;83.39
57250;BME280;43102;52.014;-0.680;2024-02-23T02:56:00;97393;;;4.54;83.45
57250;BME280;43102;52.014;-0.680;2024-02-23T02:57:00;97393;;;4.54;83.45
57250;BME280;43102;52.014;-0.680;2024-02-23T02:58:00;97393;;;4.54;83.45
57250;BME280;43102;52.014;-0.680;2024-02-23T02:59:00;97393;;;4.54;83.45
57250;BME280;43102;52.014;-0.680;2024-02-23T03:00:00;97393;;;4.54;83.45
57250;BME280;43102;52.014;-0.680;2024-02-23T03:01:00;97387;;;4.54;83.71
57250;BME280;43102;52.014;-0.680;2024-02-23T03:02:00;97387;;;4.54;83.71
57250;BME280;43102;52.014;-0.680;2024-02-23T03:03:00;97387;;;4.54;83.71
57250;BME280;43102;52.014;-0.680;2024-02-23T03:04:00;97387;;;4.54;83.71
57250;BME280;43102;52.014;-0.680;2024-02-23T03:05:00;97387;;;4.54;83.71
57250;BME280;43102;52.014;-0.680;2024-02-23T03:06:00;97384;;;4.59;83.81
57250;BME280;43102;52.014;-0.680;2024-02-23T03:07:00;97384;;;4.59;83.81
57250;BME280;43102;52.014;-0.680;2024-02-23T03:08:00;97384;;;4.59;83.81
57250;BME280;43102;52.014;-0.680;2024-02-23T03:09:00;97384;;;4.59;83.81
57250;BME280;43102;52.014;-0.680;2024-02-23T03:10:00;97384;;;4.59;83.81
57250;BME280;43102;52.014;-0.680;2024-02-23T03:11:01;97383;;;4.57;84.34
57250;BME280;43102;52.014;-0.680;2024-02-23T03:12:00;97383;;;4.57;84.34
57250;BME280;43102;52.014;-0.680;2024-02-23T03:13:00;97383;;;4.57;84.34
57250;BME280;43102;52.014;-0.680;2024-02-23T03:14:00;97383;;;4.57;84.34
57250;BME280;43102;52.014;-0.680;2024-02-23T03:15:00;97383;;;4.57;84.34
57250;BME280;43102;52.014;-0.680;2024-02-23T03:16:00;97378;;;4.63;84.53
57250;BME280;43102;52.014;-0.680;2024-02-23T03:17:00;97378;;;4.63;84.53
57250;BME280;43102;52.014;-0.680;2024-02-23T03:18:00;97378;;;4.63;84.53
57250;BME280;43102;52.014;-0.680;2024-02-23T03:19:00;97378;;;4.63;84.53
57250;BME280;43102;52.014;-0.680;2024-02-23T03:20:00;97378;;;4.63;84.53
57250;BME280;43102;52.014;-0.680;2024-02-23T03:21:00;97371;;;4.66;84.63
57250;BME280;43102;52.014;-0.680;2024-02-23T03:22:00;97371;;;4.66;84.63
57250;BME280;43102;52.014;-0.680;2024-02-23T03:23:00;97371;;;4.66;84.63
57250;BME280;43102;52.014;-0.680;2024-02-23T03:24:00;97371;;;4.66;84.63
57250;BME280;43102;52.014;-0.680;2024-02-23T03:25:00;97371;;;4.66;84.63
57250;BME280;43102;52.014;-0.680;2024-02-23T03:26:00;97372;;;4.63;85.32
57250;BME280;43102;52.014;-0.680;2024-02-23T03:27:00;97372;;;4.63;85.32
57250;BME280;43102;52.014;-0.680;2024-02-23T03:28:00;97372;;;4.63;85.32
57250;BME280;43102;52.014;-0.680;2024-02-23T03:29:00;97372;;;4.63;85.32
57250;BME280;43102;52.014;-0.680;2024-02-23T03:30:00;97372;;;4.63;85.32
57250;BME280;43102;52.014;-0.680;2024-02-23T03:31:00;97378;;;4.71;84.85
57250;BME280;43102;52.014;-0.680;2024-02-23T03:32:00;97378;;;4.71;84.85
57250;BME280;43102;52.014;-0.680;2024-02-23T03:33:00;97378;;;4.71;84.85
57250;BME280;43102;52.014;-0.680;2024-02-23T03:34:00;97378;;;4.71;84.85
57250;BME280;43102;52.014;-0.680;2024-02-23T03:35:00;97378;;;4.71;84.85
57250;BME280;43102;52.014;-0.680;2024-02-23T03:36:00;97376;;;4.68;85.01
57250;BME280;43102;52.014;-0.680;2024-02-23T03:37:00;97376;;;4.68;85.01
57250;BME280;43102;52.014;-0.680;2024-02-23T03:38:00;97376;;;4.68;85.01
57250;BME280;43102;52.014;-0.680;2024-02-23T03:39:00;97376;;;4.68;85.01
57250;BME280;43102;52.014;-0.680;2024-02-23T03:40:00;97376;;;4.68;85.01
57250;BME280;43102;52.014;-0.680;2024-02-23T03:41:00;97380;;;4.66;85.12
57250;BME280;43102;52.014;-0.680;2024-02-23T03:42:00;97380;;;4.66;85.12
57250;BME280;43102;52.014;-0.680;2024-02-23T03:43:00;97380;;;4.66;85.12
57250;BME280;43102;52.014;-0.680;2024-02-23T03:44:00;97380;;;4.66;85.12
57250;BME280;43102;52.014;-0.680;2024-02-23T03:45:00;97380;;;4.66;85.12
57250;BME280;43102;52.014;-0.680;2024-02-23T03:46:00;97371;;;4.57;85.24
57250;BME280;43102;52.014;-0.680;2024-02-23T03:47:00;97371;;;4.57;85.24
57250;BME280;43102;52.014;-0.680;2024-02-23T03:48:00;97371;;;4.57;85.24
57250;BME280;43102;52.014;-0.680;2024-02-23T03:49:00;97371;;;4.57;85.24
57250;BME280;43102;52.014;-0.680;2024-02-23T03:50:00;97371;;;4.57;85.24
57250;BME280;43102;52.014;-0.680;2024-02-23T03:51:00;97378;;;4.54;85.14
57250;BME280;43102;52.014;-0.680;2024-02-23T03:52:00;97378;;;4.54;85.14
57250;BME280;43102;52.014;-0.680;2024-02-23T03:53:00;97378;;;4.54;85.14
57250;BME280;43102;52.014;-0.680;2024-02-23T03:54:00;97378;;;4.54;85.14
57250;BME280;43102;52.014;-0.680;2024-02-23T03:55:00;97378;;;4.54;85.14
57250;BME280;43102;52.014;-0.680;2024-02-23T03:56:00;97372;;;4.57;84.92
57250;BME280;43102;52.014;-0.680;2024-02-23T03:57:00;97372;;;4.57;84.92
57250;BME280;43102;52.014;-0.680;2024-02-23T03:58:00;97372;;;4.57;84.92
57250;BME280;43102;52.014;-0.680;2024-02-23T03:59:00;97372;;;4.57;84.92
57250;BME280;43102;52.014;-0.680;2024-02-23T04:00:00;97372;;;4.57;84.92
57250;BME280;43102;52.014;-0.680;2024-02-23T04:01:00;97376;;;4.52;85.09
57250;BME280;43102;52.014;-0.680;2024-02-23T04:02:00;97376;;;4.52;85.09
57250;BME280;43102;52.014;-0.680;2024-02-23T04:03:00;97376;;;4.52;85.09
57250;BME280;43102;52.014;-0.680;2024-02-23T04:04:00;97376;;;4.52;85.09
57250;BME280;43102;52.014;-0.680;2024-02-23T04:05:00;97376;;;4.52;85.09
57250;BME280;43102;52.014;-0.680;2024-02-23T04:06:00;97376;;;4.54;85.10
57250;BME280;43102;52.014;-0.680;2024-02-23T04:07:00;97376;;;4.54;85.10
57250;BME280;43102;52.014;-0.680;2024-02-23T04:08:00;97376;;;4.54;85.10
57250;BME280;43102;52.014;-0.680;2024-02-23T04:09:00;97376;;;4.54;85.10
57250;BME280;43102;52.014;-0.680;2024-02-23T04:10:00;97376;;;4.54;85.10
57250;BME280;43102;52.014;-0.680;2024-02-23T04:11:00;97373;;;4.43;85.68
57250;BME280;43102;52.014;-0.680;2024-02-23T04:12:00;97373;;;4.43;85.68
57250;BME280;43102;52.014;-0.680;2024-02-23T04:13:00;97373;;;4.43;85.68
57250;BME280;43102;52.014;-0.680;2024-02-23T04:14:00;97373;;;4.43;85.68
57250;BME280;43102;52.014;-0.680;2024-02-23T04:15:00;97373;;;4.43;85.68
57250;BME280;43102;52.014;-0.680;2024-02-23T04:16:00;97379;;;4.51;85.32
57250;BME280;43102;52.014;-0.680;2024-02-23T04:17:00;97379;;;4.51;85.32
57250;BME280;43102;52.014;-0.680;2024-02-23T04:18:00;97379;;;4.51;85.32
57250;BME280;43102;52.014;-0.680;2024-02-23T04:19:00;97379;;;4.51;85.32
57250;BME280;43102;52.014;-0.680;2024-02-23T04:20:00;97379;;;4.51;85.32
57250;BME280;43102;52.014;-0.680;2024-02-23T04:21:00;97378;;;4.54;85.39
57250;BME280;43102;52.014;-0.680;2024-02-23T04:22:00;97378;;;4.54;85.39
57250;BME280;43102;52.014;-0.680;2024-02-23T04:23:00;97378;;;4.54;85.39
57250;BME280;43102;52.014;-0.680;2024-02-23T04:24:00;97378;;;4.54;85.39
57250;BME280;43102;52.014;-0.680;2024-02-23T04:25:00;97378;;;4.54;85.39
57250;BME280;43102;52.014;-0.680;2024-02-23T04:26:00;97382;;;4.57;85.35
57250;BME280;43102;52.014;-0.680;2024-02-23T04:27:00;97382;;;4.57;85.35
57250;BME280;43102;52.014;-0.680;2024-02-23T04:28:00;97382;;;4.57;85.35
57250;BME280;43102;52.014;-0.680;2024-02-23T04:29:00;97382;;;4.57;85.35
57250;BME280;43102;52.014;-0.680;2024-02-23T04:30:00;97382;;;4.57;85.35
57250;BME280;43102;52.014;-0.680;2024-02-23T04:31:00;97384;;;4.55;85.60
57250;BME280;43102;52.014;-0.680;2024-02-23T04:32:00;97384;;;4.55;85.60
57250;BME280;43102;52.014;-0.680;2024-02-23T04:33:00;97384;;;4.55;85.60
57250;BME280;43102;52.014;-0.680;2024-02-23T04:34:00;97384;;;4.55;85.60
57250;BME280;43102;52.014;-0.680;2024-02-23T04:35:00;97384;;;4.55;85.60
57250;BME280;43102;52.014;-0.680;2024-02-23T04:36:00;97378;;;4.61;85.26
57250;BME280;43102;52.014;-0.680;2024-02-23T04:37:00;97378;;;4.61;85.26
57250;BME280;43102;52.014;-0.680;2024-02-23T04:38:00;97378;;;4.61;85.26
57250;BME280;43102;52.014;-0.680;2024-02-23T04:39:00;97378;;;4.61;85.26
57250;BME280;43102;52.014;-0.680;2024-02-23T04:40:00;97378;;;4.61;85.26
57250;BME280;43102;52.014;-0.680;2024-02-23T04:41:02;97389;;;4.60;85.22
57250;BME280;43102;52.014;-0.680;2024-02-23T04:42:00;97389;;;4.60;85.22
57250;BME280;43102;52.014;-0.680;2024-02-23T04:43:00;97389;;;4.60;85.22
57250;BME280;43102;52.014;-0.680;2024-02-23T04:44:00;97389;;;4.60;85.22
57250;BME280;43102;52.014;-0.680;2024-02-23T04:45:00;97389;;;4.60;85.22
57250;BME280;43102;52.014;-0.680;2024-02-23T04:46:00;97381;;;4.60;85.18
57250;BME280;43102;52.014;-0.680;2024-02-23T04:47:00;97381;;;4.60;85.18
57250;BME280;43102;52.014;-0.680;2024-02-23T04:48:00;97381;;;4.60;85.18
57250;BME280;43102;52.014;-0.680;2024-02-23T04:49:00;97381;;;4.60;85.18
57250;BME280;43102;52.014;-0.680;2024-02-23T04:50:00;97381;;;4.60;85.18
57250;BME280;43102;52.014;-0.680;2024-02-23T04:51:00;97395;;;4.58;85.14
57250;BME280;43102;52.014;-0.680;2024-02-23T04:52:00;97395;;;4.58;85.14
57250;BME280;43102;52.014;-0.680;2024-02-23T04:53:00;97395;;;4.58;85.14
57250;BME280;43102;52.014;-0.680;2024-02-23T04:54:00;97395;;;4.58;85.14
57250;BME280;43102;52.014;-0.680;2024-02-23T04:55:00;97395;;;4.58;85.14
57250;BME280;43102;52.014;-0.680;2024-02-23T04:56:00;97386;;;4.57;85.12
57250;BME280;43102;52.014;-0.680;2024-02-23T04:57:00;97386;;;4.57;85.12
57250;BME280;43102;52.014;-0.680;2024-02-23T04:58:00;97386;;;4.57;85.12
57250;BME280;43102;52.014;-0.680;2024-02-23T04:59:00;97386;;;4.57;85.12
57250;BME280;43102;52.014;-0.680;2024-02-23T05:00:00;97386;;;4.57;85.12
57250;BME280;43102;52.014;-0.680;2024-02-23T05:01:00;97380;;;4.57;85.06
57250;BME280;43102;52.014;-0.680;2024-02-23T05:02:00;97380;;;4.57;85.06
57250;BME280;43102;52.014;-0.680;2024-02-23T05:03:00;97380;;;4.57;85.06
57250;BME280;43102;52.014;-0.680;2024-02-23T05:04:00;97380;;;4.57;85.06
57250;BME280;43102;52.014;-0.680;2024-02-23T05:05:01;97380;;;4.57;85.06
57250;BME280;43102;52.014;-0.680;2024-02-23T05:06:00;97381;;;4.51;84.92
57250;BME280;43102;52.014;-0.680;2024-02-23T05:07:00;97381;;;4.51;84.92
57250;BME280;43102;52.014;-0.680;2024-02-23T05:08:00;97381;;;4.51;84.92
57250;BME280;43102;52.014;-0.680;2024-02-23T05:09:00;97381;;;4.51;84.92
57250;BME280;43102;52.014;-0.680;2024-02-23T05:10:00;97381;;;4.51;84.92
57250;BME280;43102;52.014;-0.680;2024-02-23T05:11:00;97376;;;4.46;85.09
57250;BME280;43102;52.014;-0.680;2024-02-23T05:12:00;97376;;;4.46;85.09
57250;BME280;43102;52.014;-0.680;2024-02-23T05:13:00;97376;;;4.46;85.09
57250;BME280;43102;52.014;-0.680;2024-02-23T05:14:00;97376;;;4.46;85.09
57250;BME280;43102;52.014;-0.680;2024-02-23T05:15:00;97376;;;4.46;85.09
57250;BME280;43102;52.014;-0.680;2024-02-23T05:16:00;97381;;;4.41;85.11
57250;BME280;43102;52.014;-0.680;2024-02-23T05:17:00;97381;;;4.41;85.11
57250;BME280;43102;52.014;-0.680;2024-02-23T05:18:00;97381;;;4.41;85.11
57250;BME280;43102;52.014;-0.680;2024-02-23T05:19:00;97381;;;4.41;85.11
57250;BME280;43102;52.014;-0.680;2024-02-23T05:20:00;97381;;;4.41;85.11
57250;BME280;43102;52.014;-0.680;2024-02-23T05:21:00;97387;;;4.38;85.05
57250;BME280;43102;52.014;-0.680;2024-02-23T05:22:00;97387;;;4.38;85.05
57250;BME280;43102;52.014;-0.680;2024-02-23T05:23:00;97387;;;4.38;85.05
57250;BME280;43102;52.014;-0.680;2024-02-23T05:24:00;97387;;;4.38;85.05
57250;BME280;43102;52.014;-0.680;2024-02-23T05:25:00;97387;;;4.38;85.05
57250;BME280;43102;52.014;-0.680;2024-02-23T05:26:00;97396;;;4.30;85.27
57250;BME280;43102;52.014;-0.680;2024-02-23T05:27:00;97396;;;4.30;85.27
57250;BME280;43102;52.014;-0.680;2024-02-23T05:28:00;97396;;;4.30;85.27
57250;BME280;43102;52.014;-0.680;2024-02-23T05:29:00;97396;;;4.30;85.27
57250;BME280;43102;52.014;-0.680;2024-02-23T05:30:00;97396;;;4.30;85.27